Nearby METAR Reports

 

KCMH - Columbus, Ohio, USA
Distance from station: SW 5mi, 8km
Updated: Sat, 20-Jul-2019 3:51pm EDT
Partly cloudy
Partly cloudy
 Wind from WSW
Wind: WSW 16 mph , 26 km/h, Gust: 23 mph , 37 km/h
Temperature: 93°F , 34°C
Heat Index: 99°F , 37°C
Dew Point: 70°F , 21°C
Humidity: 47%
Barometer: 29.93 inHg , 1013.5 hPa
Clouds: Partly cloudy
Visibility: 10 miles , 16 km
Cloud details: Partly cloudy 3500 ft
Partly cloudy 25000 ft
2019/07/20 19:51 KCMH 201951Z 24014G20KT 10SM SCT035 SCT250 34/21 A2993 RMK AO2 SLP126 T03390211
KOSU - Columbus/St Univ, Ohio, USA
Distance from station: W 14mi, 23km
Updated: Sat, 20-Jul-2019 3:53pm EDT
Few Clouds
Few Clouds
 Wind from WSW
Wind: WSW 17 mph , 28 km/h
Temperature: 91°F , 33°C
Heat Index: 98°F , 37°C
Dew Point: 72°F , 22°C
Humidity: 52%
Barometer: 29.94 inHg , 1013.9 hPa
Clouds: Few Clouds
Visibility: 10 miles , 16 km
Cloud details: Few Clouds 4200 ft
2019/07/20 19:53 KOSU 201953Z 24015KT 10SM FEW042 33/22 A2994 RMK AO2 SLP128 T03330222
 
KLCK - Rickenbacker Ang, Ohio, USA
Distance from station: SSW 17mi, 27km
Updated: Sat, 20-Jul-2019 3:55pm EDT
Clear
Clear
 Wind from WSW
Wind: WSW 15 mph , 24 km/h
Temperature: 91°F , 33°C
Heat Index: 98°F , 37°C
Dew Point: 72°F , 22°C
Humidity: 52%
Barometer: 29.93 inHg , 1013.5 hPa
Clouds: Clear
Visibility: 10 miles , 16 km
2019/07/20 19:55 KLCK 201955Z AUTO 24013KT 10SM CLR 33/22 A2993 RMK AO2 T03300224
KVTA - Newark, Ohio, USA
Distance from station: E 19mi, 30km
Updated: Sat, 20-Jul-2019 3:54pm EDT
Few Clouds
Few Clouds
 Wind from SSW
Wind: SSW 16 mph , 26 km/h
Temperature: 93°F , 34°C
Heat Index: 100°F , 38°C
Dew Point: 72°F , 22°C
Humidity: 49%
Barometer: 29.93 inHg , 1013.5 hPa
Clouds: Few Clouds
Visibility: 10 miles , 16 km
Cloud details: Few Clouds 3900 ft
2019/07/20 19:54 KVTA 201954Z AUTO 21014KT 10SM FEW039 34/22 A2993 RMK AO2 SLP124 T03440217
 
KTZR - Columbus/Bolton, Ohio, USA
Distance from station: WSW 20mi, 31km
Updated: Sat, 20-Jul-2019 3:47pm EDT
Clear
Clear
 Wind from SW
Wind: SW 18 mph , 30 km/h
Temperature: 91°F , 33°C
Heat Index: 100°F , 38°C
Dew Point: 73°F , 23°C
Humidity: 56%
Barometer: 29.95 inHg , 1014.2 hPa
Clouds: Clear
Visibility: 10 miles , 16 km
2019/07/20 19:47 KTZR 201947Z 23016KT 10SM SKC 33/23 A2995
KLHQ - Lancaster, Ohio, USA
Distance from station: SSE 22mi, 36km
Updated: Sat, 20-Jul-2019 3:53pm EDT
Clear
Clear
 Wind from SW
Wind: SW 10 mph , 17 km/h
Temperature: 91°F , 33°C
Heat Index: 100°F , 38°C
Dew Point: 73°F , 23°C
Humidity: 56%
Barometer: 29.95 inHg , 1014.2 hPa
Clouds: Clear
Visibility: 10 miles , 16 km
2019/07/20 19:53 KLHQ 201953Z AUTO 22009KT 10SM CLR 33/23 A2995 RMK AO2 SLP130 T03280228
 
KDLZ - Delaware, Ohio, USA
Distance from station: NW 23mi, 36km
Updated: Sat, 20-Jul-2019 3:55pm EDT
Partly cloudy
Partly cloudy
 Wind from SW
Wind: SW 14 mph , 22 km/h, Gust: 21 mph , 33 km/h
Temperature: 91°F , 33°C
Heat Index: 98°F , 37°C
Dew Point: 72°F , 22°C
Humidity: 52%
Barometer: 29.94 inHg , 1013.9 hPa
Clouds: Partly cloudy
Visibility: 10 miles , 16 km
Cloud details: Partly cloudy 3900 ft
2019/07/20 19:55 KDLZ 201955Z AUTO 22012G18KT 10SM SCT039 33/22 A2994 RMK AO2
K4I3 - Mt Vernon/Knox, Ohio, USA
Distance from station: NE 25mi, 40km
Updated: Sat, 20-Jul-2019 3:59pm EDT
Partly cloudy
Partly cloudy
 Wind from SSW
Wind: SSW 12 mph , 19 km/h, Gust: 17 mph , 28 km/h
Temperature: 91°F , 33°C
Heat Index: 102°F , 39°C
Dew Point: 75°F , 24°C
Humidity: 59%
Barometer: 29.96 inHg , 1014.6 hPa
Clouds: Partly cloudy
Visibility: 10 miles , 16 km
Cloud details: Partly cloudy 4300 ft
2019/07/20 19:59 K4I3 201959Z AUTO 21010G15KT 170V230 10SM SCT043 33/24 A2996 RMK AO2
 
KMRT - Marysville, Ohio, USA
Distance from station: WNW 30mi, 49km
Updated: Sat, 20-Jul-2019 3:56pm EDT
Partly cloudy
Partly cloudy
 Wind from SW
Wind: SW 15 mph , 24 km/h, Gust: 20 mph , 31 km/h
Temperature: 90°F , 32°C
Heat Index: 99°F , 37°C
Dew Point: 73°F , 23°C
Humidity: 59%
Barometer: 29.95 inHg , 1014.2 hPa
Clouds: Partly cloudy
Visibility: 10 miles , 16 km
Cloud details: Partly cloudy 4300 ft
2019/07/20 19:56 KMRT 201956Z AUTO 23013G17KT 10SM SCT043 32/23 A2995 RMK AO2 T03220229
KMNN - Marion, Ohio, USA
Distance from station: NNW 41mi, 67km
Updated: Sat, 20-Jul-2019 3:53pm EDT
Few Clouds
Few Clouds
 Wind from SW
Wind: SW 17 mph , 28 km/h, Gust: 28 mph , 44 km/h
Temperature: 91°F , 33°C
Heat Index: 100°F , 38°C
Dew Point: 73°F , 23°C
Humidity: 56%
Barometer: 29.93 inHg , 1013.5 hPa
Clouds: Few Clouds
Visibility: 10 miles , 16 km
Cloud details: Few Clouds 4000 ft
2019/07/20 19:53 KMNN 201953Z AUTO 23015G24KT 10SM FEW040 33/23 A2993 RMK AO2 SLP126 T03280228
 
KZZV - Zanesville, Ohio, USA
Distance from station: E 49mi, 79km
Updated: Sat, 20-Jul-2019 3:53pm EDT
Few Clouds
Few Clouds
 Wind from WSW
Wind: WSW 10 mph , 17 km/h, Gust: 20 mph , 31 km/h
Temperature: 91°F , 33°C
Heat Index: 100°F , 38°C
Dew Point: 73°F , 23°C
Humidity: 56%
Barometer: 29.93 inHg , 1013.5 hPa
Clouds: Few Clouds
Visibility: 10 miles , 16 km
Cloud details: Few Clouds 4100 ft
2019/07/20 19:53 KZZV 201953Z AUTO 24009G17KT 10SM FEW041 33/23 A2993 RMK AO2 SLP125 T03330228